Provo, UT

5:07 PM MST on February 21, 2017 (GMT -0700)
Dixon | | Change Station

Elev 4570 ft 40.24 °N, 111.67 °W | Updated 3 minutes ago

Mostly Cloudy
Mostly Cloudy
61.5 °F
Feels Like 61.5 °F
N
0.0
Wind Variable Wind from North
Gusts 0.6 mph

Today
High -- | Low -- °F
--% Chance of Precip.
Yesterday
High -- | Low -- °F
Precip. -- in
Pressure 29.89 in
Visibility 10.0 miles
Clouds Clear
Dew Point 35 °F
Humidity 37%
Rainfall 0.00 in
Snow Depth Not available.
7:11 AM 6:09 PM
Waning Crescent, 21% visible
METAR KPVU 212356Z 21022G25KT 10SM CLR 14/02 A2996 RMK AO2 PK WND 21027/2322 SLP122 T01440017 10161 20122 56021
Pressure 29.89 in
Visibility 10.0 miles
Clouds Clear
Dew Point 35 °F
Humidity 37%
Rainfall 0.00 in
Snow Depth Not available.
7:11 AM 6:09 PM
Waning Crescent, 21% visible
METAR KPVU 212356Z 21022G25KT 10SM CLR 14/02 A2996 RMK AO2 PK WND 21027/2322 SLP122 T01440017 10161 20122 56021

Get Your Daily Forecast Email!

Thanks for signing up!

Be on the lookout for a verification email in your inbox.

You'll start receiving the daily forecast at 8 AM.

×

10-Day Weather Forecast

Almanac

Astronomy

Feb. 21, 2017 Rise Set
Actual Time
Civil Twilight
Nautical Twilight
Astronomical Twilight
Moon
Length of Visible Light
Length of Day
Tomorrow will be .
, % of the Moon is Illuminated

Today's Extremes

State Highs State Lows

Community

WunderPhotos

Upload Photos

1,962,540 photos uploaded!

WunderBlog® & News

Nearby

Air Quality

  Air Quality AQ Index Pollutant
Not available.

Snow Depth

Station Depth Elevation

Earthquake Activity

City Distance Mag. Time & Date
Minimum magnitude displayed is 2.5.

Coastal Water Temperatures

Place Temperature

Stations

Nearby Weather Stations

Station Location Temp. Windchill Dew Point Humidity Wind Precip. Elev Updated Type
                   

Watches & Warnings

There are currently no watches in effect.